Time;durP1;ratioP1;P1;durP2;ratioP2;P2;SDS_P1;SDS_P2;PMS_P1;PMS_P2;Temp;Humidity;BMP_temperature;BMP_pressure;BME280_temperature;BME280_humidity;BME280_pressure;Samples;Min_cycle;Max_cycle;Signal;HPM_P1;HPM_P2
2021/06/11 00:02:10;;;;;;;20.13;12.95;;;;;;;16.21;67.83;100519.23;128273;1095;22343;-79
2021/06/11 00:04:40;;;;;;;13.47;11.53;;;;;;;16.21;67.93;100518.41;128366;1092;22366;-79
2021/06/11 00:07:10;;;;;;;14.33;12.93;;;;;;;16.20;67.96;100519.45;128642;1092;22409;-79
2021/06/11 00:09:40;;;;;;;16.03;13.38;;;;;;;16.17;67.72;100509.19;128587;1092;22344;-80
2021/06/11 00:12:14;;;;;;;13.20;11.65;;;;;;;16.15;68.19;100504.04;128560;1092;22696;-79
2021/06/11 00:14:45;;;;;;;14.75;13.25;;;;;;;16.14;68.18;100501.59;128675;1092;22345;-79
2021/06/11 00:17:16;;;;;;;15.15;13.45;;;;;;;16.12;68.12;100507.10;128594;1092;22374;-78
2021/06/11 00:19:45;;;;;;;13.98;12.60;;;;;;;16.14;68.51;100506.92;128566;1092;22383;-79
2021/06/11 00:22:15;;;;;;;15.88;13.85;;;;;;;16.13;68.47;100508.77;128562;1092;22889;-79
2021/06/11 00:24:46;;;;;;;16.38;14.75;;;;;;;16.13;68.53;100505.28;128571;1092;22518;-78
2021/06/11 00:27:17;;;;;;;16.58;14.83;;;;;;;16.11;67.85;100507.31;128644;1092;22455;-80
2021/06/11 00:29:47;;;;;;;19.63;16.28;;;;;;;16.09;68.18;100504.02;128558;1092;22349;-79
2021/06/11 00:32:17;;;;;;;17.58;15.78;;;;;;;16.08;68.47;100507.71;128653;1092;22355;-78
2021/06/11 00:34:47;;;;;;;17.15;15.45;;;;;;;16.07;67.91;100508.74;128607;1095;24247;-79
2021/06/11 00:37:18;;;;;;;;;;;;;;;15.96;67.71;100502.97;128657;1092;22463;-78
2021/06/11 00:39:49;;;;;;;17.75;15.88;;;;;;;15.87;68.03;100498.83;128647;1092;21304;-78
2021/06/11 00:42:18;;;;;;;18.28;15.68;;;;;;;15.84;68.27;100491.23;128588;1092;22344;-78
2021/06/11 00:44:48;;;;;;;18.35;16.58;;;;;;;15.81;68.53;100490.81;128582;1095;22363;-79
2021/06/11 00:47:18;;;;;;;18.48;16.28;;;;;;;15.75;67.84;100492.41;128583;1094;24580;-78
2021/06/11 00:49:51;;;;;;;17.78;15.53;;;;;;;15.73;68.29;100502.46;128594;1092;22404;-82
2021/06/11 00:52:24;;;;;;;18.90;16.83;;;;;;;15.72;68.71;100498.13;128892;1092;22345;-80
2021/06/11 00:54:54;;;;;;;19.83;15.60;;;;;;;15.72;68.67;100496.28;128191;1095;22478;-78
2021/06/11 00:57:24;;;;;;;18.18;15.55;;;;;;;15.72;68.64;100498.13;128207;1095;22379;-79
2021/06/11 00:59:57;;;;;;;18.28;15.38;;;;;;;15.72;68.37;100503.45;128165;1095;22392;-79
2021/06/11 01:02:27;;;;;;;18.53;16.55;;;;;;;15.70;68.94;100498.34;128240;1095;24227;-79
2021/06/11 01:04:57;;;;;;;15.77;14.27;;;;;;;15.70;68.96;100490.36;128222;1095;22366;-79
2021/06/11 01:07:28;;;;;;;17.75;15.45;;;;;;;15.70;68.51;100489.54;128203;1095;22889;-79
2021/06/11 01:09:59;;;;;;;17.50;15.70;;;;;;;15.68;68.72;100487.06;128271;1095;23227;-77
2021/06/11 01:12:29;;;;;;;18.15;16.45;;;;;;;15.66;68.96;100489.11;128325;1092;22400;-78
2021/06/11 01:15:03;;;;;;;17.05;15.20;;;;;;;15.64;68.98;100491.11;128605;1094;22343;-78
2021/06/11 01:17:34;;;;;;;18.68;16.68;;;;;;;15.63;68.49;100488.66;128582;1092;22344;-78
2021/06/11 01:20:12;;;;;;;19.48;15.25;;;;;;;15.60;69.00;100491.72;128616;1095;22334;-77
2021/06/11 01:23:23;;;;;;;16.80;15.10;;;;;;;15.58;68.98;100485.75;128722;1092;22383;-78
2021/06/11 01:26:37;;;;;;;16.63;14.75;;;;;;;15.51;68.79;100486.53;128258;1098;24498;-77
2021/06/11 01:29:15;;;;;;;16.93;15.18;;;;;;;15.45;68.85;100484.66;128215;1098;22449;-79
2021/06/11 01:31:50;;;;;;;18.83;16.83;;;;;;;15.42;69.08;100485.05;128287;1098;22360;-77
2021/06/11 01:34:26;;;;;;;19.35;16.23;;;;;;;15.42;69.31;100478.90;128477;1095;22340;-78
2021/06/11 01:37:14;;;;;;;18.55;16.53;;;;;;;15.42;69.30;100481.56;128315;1095;22444;-78
2021/06/11 01:39:50;;;;;;;17.93;15.93;;;;;;;15.42;69.50;100487.70;128290;1095;24256;-78
2021/06/11 01:42:21;;;;;;;16.73;15.13;;;;;;;15.44;69.31;100477.69;128293;1095;22363;-78
2021/06/11 01:44:53;;;;;;;18.93;16.95;;;;;;;15.44;69.20;100485.68;128263;1095;24728;-77
2021/06/11 01:47:25;;;;;;;19.33;17.53;;;;;;;15.42;69.18;100486.89;128289;1095;22381;-77
2021/06/11 01:49:55;;;;;;;18.57;16.70;;;;;;;15.39;69.07;100482.77;128310;1094;22481;-78
2021/06/11 01:52:26;;;;;;;19.28;16.10;;;;;;;15.37;69.11;100473.36;128242;1095;22676;-78
2021/06/11 01:54:56;;;;;;;18.78;16.95;;;;;;;15.34;69.12;100476.41;128321;1095;24502;-79
2021/06/11 01:57:28;;;;;;;16.98;15.23;;;;;;;15.28;69.08;100481.48;128266;1095;22362;-79
2021/06/11 02:00:00;;;;;;;17.85;14.98;;;;;;;15.25;69.25;100483.71;128242;1095;22362;-79
2021/06/11 02:02:36;;;;;;;16.00;14.48;;;;;;;15.22;69.38;100479.59;128230;1095;22381;-79
2021/06/11 02:05:07;;;;;;;17.25;15.63;;;;;;;15.22;69.75;100481.44;128308;1093;23280;-79
2021/06/11 02:07:37;;;;;;;18.93;16.37;;;;;;;15.22;69.69;100482.26;128338;1095;24647;-78
2021/06/11 02:10:10;;;;;;;18.85;16.85;;;;;;;15.20;69.53;100483.49;128335;1095;22494;-78
2021/06/11 02:12:40;;;;;;;19.28;17.38;;;;;;;15.17;69.58;100482.03;128426;1095;22375;-77
2021/06/11 02:15:12;;;;;;;18.73;16.93;;;;;;;15.15;69.68;100485.91;128358;1095;22675;-79
2021/06/11 02:17:45;;;;;;;16.93;15.43;;;;;;;15.13;69.88;100483.45;128369;1095;22398;-79
2021/06/11 02:20:21;;;;;;;17.87;16.13;;;;;;;15.13;69.88;100486.11;128372;1092;22350;-78
2021/06/11 02:22:51;;;;;;;18.38;16.75;;;;;;;15.13;70.35;100480.78;128677;1092;22439;-79
2021/06/11 02:25:25;;;;;;;17.68;15.88;;;;;;;15.13;70.09;100477.28;128256;1098;22374;-79
2021/06/11 02:27:57;;;;;;;19.40;17.40;;;;;;;15.13;69.85;100477.28;128287;1095;24281;-78
2021/06/11 02:30:27;;;;;;;20.05;17.95;;;;;;;15.12;70.08;100475.64;128329;1095;24520;-77
2021/06/11 02:32:57;;;;;;;19.73;15.85;;;;;;;15.11;70.05;100464.19;128278;1095;24552;-79
2021/06/11 02:35:26;;;;;;;17.95;16.25;;;;;;;15.12;70.21;100471.14;128266;1095;22419;-78
2021/06/11 02:37:58;;;;;;;19.65;17.55;;;;;;;15.14;70.35;100468.30;128315;1095;22357;-78
2021/06/11 02:40:28;;;;;;;18.23;16.33;;;;;;;15.16;70.23;100471.57;128270;1095;22340;-79
2021/06/11 02:43:15;;;;;;;20.45;18.08;;;;;;;15.18;69.94;100474.88;128010;1095;24615;-79
2021/06/11 02:46:00;;;;;;;19.53;17.55;;;;;;;15.20;70.31;100472.84;128247;1095;23392;-78
2021/06/11 02:48:35;;;;;;;21.63;19.43;;;;;;;15.20;69.99;100470.19;128267;1095;22450;-78
2021/06/11 02:51:12;;;;;;;21.53;19.10;;;;;;;15.21;69.85;100469.98;128310;1095;22368;-79
2021/06/11 02:53:44;;;;;;;21.20;19.00;;;;;;;15.21;69.70;100477.14;128406;1095;23833;-79
2021/06/11 02:56:20;;;;;;;21.30;19.03;;;;;;;15.20;69.68;100473.66;128319;1095;23209;-79
2021/06/11 02:59:02;;;;;;;21.53;19.28;;;;;;;15.17;69.35;100471.39;128282;1095;22400;-79
2021/06/11 03:01:37;;;;;;;;;;;;;;;15.12;69.28;100473.80;128530;1092;24509;-79
2021/06/11 03:04:10;;;;;;;22.70;19.58;;;;;;;15.05;69.56;100472.94;128701;1092;21285;-79
2021/06/11 03:06:44;;;;;;;21.13;18.93;;;;;;;15.06;70.02;100479.89;128676;1092;22488;-78
2021/06/11 03:09:18;;;;;;;21.48;19.35;;;;;;;15.11;69.93;100477.48;128681;1092;22659;-79
2021/06/11 03:11:53;;;;;;;23.40;19.60;;;;;;;15.19;70.08;100476.50;128651;1092;22343;-79
2021/06/11 03:14:29;;;;;;;26.68;23.45;;;;;;;15.28;70.16;100485.98;128696;1092;24167;-77
2021/06/11 03:17:02;;;;;;;21.55;19.43;;;;;;;15.36;70.04;100480.53;128636;1092;22341;-78
2021/06/11 03:19:36;;;;;;;24.65;18.58;;;;;;;15.42;69.72;100482.38;128654;1092;23119;-77
2021/06/11 03:22:14;;;;;;;26.73;20.23;;;;;;;15.48;69.64;100484.27;128654;1092;22358;-79
2021/06/11 03:24:56;;;;;;;23.33;18.53;;;;;;;15.54;69.32;100482.66;128733;1092;24131;-78
2021/06/11 03:27:46;;;;;;;21.08;19.03;;;;;;;15.61;69.91;100480.03;128619;1092;23296;-80
2021/06/11 03:30:17;;;;;;;21.88;19.10;;;;;;;15.68;69.25;100478.25;128672;1092;24489;-79
2021/06/11 03:32:54;;;;;;;20.95;18.75;;;;;;;15.73;69.10;100483.82;128651;1092;24489;-78
2021/06/11 03:35:42;;;;;;;32.67;20.20;;;;;;;15.79;68.78;100487.51;128699;1092;22339;-80
2021/06/11 03:38:19;;;;;;;25.73;22.20;;;;;;;15.84;69.11;100480.58;128721;1092;22367;-78
2021/06/11 03:40:50;;;;;;;24.73;19.63;;;;;;;15.91;69.19;100483.27;128271;1095;22420;-78
2021/06/11 03:43:20;;;;;;;22.25;18.30;;;;;;;15.99;68.97;100483.92;128237;1095;22358;-79
2021/06/11 03:45:51;;;;;;;25.00;20.50;;;;;;;16.08;68.77;100475.73;128268;1095;22353;-79
2021/06/11 03:48:28;;;;;;;23.48;19.75;;;;;;;16.17;68.60;100485.20;128235;1095;22353;-78
2021/06/11 03:51:00;;;;;;;24.45;19.65;;;;;;;16.24;68.13;100486.03;128260;1095;22832;-79
2021/06/11 03:53:31;;;;;;;23.30;19.38;;;;;;;16.28;67.84;100486.45;128344;1095;22425;-79
2021/06/11 03:56:07;;;;;;;24.33;20.67;;;;;;;16.34;68.00;100489.13;128321;1095;22361;-79
2021/06/11 03:58:44;;;;;;;23.13;20.28;;;;;;;16.41;67.63;100483.81;128257;1095;22363;-78
2021/06/11 04:01:23;;;;;;;21.80;19.60;;;;;;;16.47;67.40;100475.00;128257;1095;22356;-79
2021/06/11 04:03:54;;;;;;;23.18;20.90;;;;;;;16.51;67.27;100484.23;128341;1095;23132;-79
2021/06/11 04:06:27;;;;;;;22.53;20.33;;;;;;;16.57;66.91;100482.61;128333;1092;22337;-78
2021/06/11 04:09:05;;;;;;;23.38;18.73;;;;;;;16.60;66.78;100479.53;128649;1092;24476;-79
2021/06/11 04:11:46;;;;;;;25.53;23.00;;;;;;;16.63;66.73;100484.46;128661;1092;24988;-79
2021/06/11 04:14:25;;;;;;;26.53;20.63;;;;;;;16.60;66.43;100483.02;128696;1092;24564;-79
2021/06/11 04:17:00;;;;;;;22.70;20.03;;;;;;;16.62;66.66;100488.13;128664;1092;22350;-77
2021/06/11 04:19:54;;;;;;;23.55;21.30;;;;;;;16.66;66.72;100492.03;128686;1092;22344;-78
2021/06/11 04:22:28;;;;;;;20.88;18.85;;;;;;;16.74;66.79;100486.52;128643;1092;22340;-78
2021/06/11 04:25:00;;;;;;;32.55;21.03;;;;;;;16.83;66.65;100485.31;128702;1092;22342;-79
2021/06/11 04:27:36;;;;;;;23.55;20.45;;;;;;;16.94;66.51;100479.35;128281;1095;22379;-78
2021/06/11 04:30:10;;;;;;;24.58;22.13;;;;;;;17.02;66.20;100482.83;128249;1095;24525;-78
2021/06/11 04:32:41;;;;;;;24.10;21.60;;;;;;;17.02;65.98;100491.66;128389;1095;23382;-79
2021/06/11 04:35:11;;;;;;;27.93;22.25;;;;;;;17.07;66.16;100486.53;128258;1095;22364;-79
2021/06/11 04:37:41;;;;;;;22.53;20.15;;;;;;;17.09;65.92;100486.31;128240;1095;22394;-79
2021/06/11 04:40:11;;;;;;;25.33;22.80;;;;;;;17.13;65.75;100484.89;128231;1095;22899;-79
2021/06/11 04:42:45;;;;;;;23.83;20.63;;;;;;;17.19;65.82;100473.36;128290;1095;22810;-79
2021/06/11 04:45:15;;;;;;;23.93;21.53;;;;;;;17.22;65.18;100472.95;128286;1095;22356;-80
2021/06/11 04:47:45;;;;;;;24.60;22.28;;;;;;;17.27;65.60;100481.16;128604;1092;22344;-78
2021/06/11 04:50:14;;;;;;;23.70;21.30;;;;;;;17.37;65.91;100472.72;128617;1093;22356;-77
2021/06/11 04:52:44;;;;;;;23.43;21.00;;;;;;;17.48;65.65;100464.05;128627;1094;22364;-77
2021/06/11 04:55:14;;;;;;;23.93;21.30;;;;;;;17.60;65.32;100470.39;128570;1092;22344;-77
2021/06/11 04:57:44;;;;;;;25.20;22.30;;;;;;;17.71;65.43;100473.44;128653;1092;24224;-77
2021/06/11 05:00:14;;;;;;;24.68;21.85;;;;;;;17.83;64.97;100477.13;128387;1092;22347;-77
2021/06/11 05:02:44;;;;;;;24.28;21.68;;;;;;;17.98;65.04;100482.19;128282;1095;22375;-77
2021/06/11 05:05:14;;;;;;;25.00;21.33;;;;;;;18.12;64.40;100473.05;128278;1095;23445;-78
2021/06/11 05:07:43;;;;;;;22.85;20.43;;;;;;;18.28;64.32;100485.10;128249;1095;22359;-78
2021/06/11 05:10:14;;;;;;;23.98;21.10;;;;;;;18.40;64.00;100474.55;128284;1095;24505;-78
2021/06/11 05:12:44;;;;;;;25.45;20.30;;;;;;;18.52;63.51;100476.29;128283;1095;22358;-77
2021/06/11 05:15:15;;;;;;;22.73;20.55;;;;;;;18.60;63.35;100479.77;128279;1095;22353;-77
2021/06/11 05:17:45;;;;;;;28.13;23.78;;;;;;;18.68;63.37;100487.51;128310;1095;22358;-78
2021/06/11 05:20:15;;;;;;;23.43;21.13;;;;;;;18.75;63.64;100489.12;128256;1092;22372;-78
2021/06/11 05:22:45;;;;;;;19.50;16.98;;;;;;;18.80;62.96;100488.48;128640;1095;22634;-78
2021/06/11 05:25:14;;;;;;;20.48;17.00;;;;;;;18.86;62.31;100495.64;128567;1092;22370;-78
2021/06/11 05:27:44;;;;;;;18.73;16.95;;;;;;;18.91;62.49;100497.66;128646;1092;24492;-79
2021/06/11 05:30:17;;;;;;;19.58;17.55;;;;;;;18.98;62.63;100499.23;128619;1092;22342;-79
2021/06/11 05:32:47;;;;;;;15.45;13.95;;;;;;;19.03;61.39;100502.08;128719;1092;22982;-77
2021/06/11 05:35:18;;;;;;;15.93;14.23;;;;;;;19.04;60.86;100492.19;128661;1092;22471;-78
2021/06/11 05:37:49;;;;;;;17.63;14.20;;;;;;;19.10;60.57;100498.52;128370;1092;22345;-78
2021/06/11 05:40:20;;;;;;;;;;;;;;;19.14;60.70;100503.20;128298;1095;23413;-79
2021/06/11 05:42:49;;;;;;;21.15;14.03;;;;;;;19.18;60.95;100507.08;128319;1095;21291;-76
2021/06/11 05:45:20;;;;;;;18.48;15.25;;;;;;;19.32;61.09;100501.59;128275;1095;23282;-76
2021/06/11 05:47:50;;;;;;;16.40;14.78;;;;;;;19.50;61.03;100501.63;128286;1095;22452;-75
2021/06/11 05:50:20;;;;;;;16.95;15.25;;;;;;;19.63;60.29;100496.14;128268;1095;22351;-74
2021/06/11 05:52:50;;;;;;;15.40;14.00;;;;;;;19.75;60.36;100501.56;128284;1095;24256;-76
2021/06/11 05:55:20;;;;;;;16.85;14.85;;;;;;;19.82;59.49;100501.48;128262;1095;22353;-75
2021/06/11 05:57:50;;;;;;;14.23;12.88;;;;;;;19.92;59.51;100501.77;128298;1092;22359;-75
2021/06/11 06:00:21;;;;;;;14.28;12.50;;;;;;;20.03;59.20;100502.89;128590;1095;22369;-75
2021/06/11 06:02:53;;;;;;;16.15;13.05;;;;;;;20.12;58.55;100509.55;128713;1094;22388;-76
2021/06/11 06:05:23;;;;;;;15.35;14.03;;;;;;;20.24;58.52;100515.80;128617;1092;23106;-78
2021/06/11 06:07:53;;;;;;;17.30;15.38;;;;;;;20.35;58.06;100514.19;128636;1092;22337;-76
2021/06/11 06:10:23;;;;;;;16.13;14.70;;;;;;;20.43;58.06;100516.57;128240;1096;22581;-78
2021/06/11 06:12:54;;;;;;;19.20;14.70;;;;;;;20.56;58.22;100511.04;128286;1095;25027;-78
2021/06/11 06:15:24;;;;;;;16.43;13.95;;;;;;;20.76;57.62;100507.20;128250;1098;25017;-79
2021/06/11 06:17:54;;;;;;;16.70;15.10;;;;;;;21.05;57.83;100513.55;128262;1095;22358;-78
2021/06/11 06:20:24;;;;;;;20.63;15.63;;;;;;;21.34;57.30;100514.48;128256;1095;22525;-77
2021/06/11 06:22:54;;;;;;;16.88;15.05;;;;;;;21.53;56.07;100512.52;128278;1095;22365;-78
2021/06/11 06:25:24;;;;;;;15.83;14.20;;;;;;;21.69;55.86;100502.88;128286;1098;22404;-79
2021/06/11 06:27:55;;;;;;;17.35;13.80;;;;;;;21.88;55.43;100507.05;128317;1095;25046;-78
2021/06/11 06:30:25;;;;;;;19.65;15.30;;;;;;;22.19;55.47;100513.05;128668;1092;22454;-78
2021/06/11 06:32:56;;;;;;;15.53;13.70;;;;;;;22.71;55.20;100504.81;128700;1092;22350;-77
2021/06/11 06:35:26;;;;;;;16.00;13.53;;;;;;;23.17;53.37;100506.38;128680;1092;22359;-77
2021/06/11 06:37:55;;;;;;;18.20;13.33;;;;;;;23.56;52.63;100503.69;128630;1092;22337;-78
2021/06/11 06:40:26;;;;;;;16.15;11.38;;;;;;;24.07;51.91;100507.02;128623;1092;22337;-82
2021/06/11 06:42:58;;;;;;;19.43;10.75;;;;;;;24.61;50.51;100514.31;128458;1095;24222;-84
2021/06/11 06:45:27;;;;;;;16.08;13.13;;;;;;;25.05;48.80;100514.11;128253;1095;22366;-79
2021/06/11 06:47:57;;;;;;;18.88;12.18;;;;;;;25.45;48.51;100513.57;128259;1095;22344;-79
2021/06/11 06:50:27;;;;;;;12.70;11.43;;;;;;;25.93;47.27;100505.44;128335;1095;22459;-78
2021/06/11 06:53:03;;;;;;;15.50;12.05;;;;;;;26.44;46.50;100495.50;128403;1095;24633;-79
2021/06/11 06:55:33;;;;;;;13.33;11.80;;;;;;;26.82;45.64;100503.39;128279;1095;22349;-79
2021/06/11 06:58:02;;;;;;;14.63;10.63;;;;;;;27.04;44.66;100495.78;128526;1095;22363;-79
2021/06/11 07:00:36;;;;;;;17.45;10.40;;;;;;;27.21;44.14;100500.92;128336;1092;22353;-79
2021/06/11 07:03:06;;;;;;;9.68;8.53;;;;;;;27.34;43.43;100502.26;128617;1092;22352;-80
2021/06/11 07:05:36;;;;;;;13.17;8.07;;;;;;;27.44;42.92;100497.61;128645;1092;22516;-80
2021/06/11 07:08:06;;;;;;;11.98;7.38;;;;;;;27.33;42.00;100500.64;128668;1092;22336;-81
2021/06/11 07:10:36;;;;;;;8.30;6.88;;;;;;;27.06;42.03;100511.76;128643;1092;22350;-82
2021/06/11 07:13:05;;;;;;;13.70;7.08;;;;;;;26.85;42.34;100508.27;128666;1092;22595;-81
2021/06/11 07:15:35;;;;;;;9.15;5.78;;;;;;;26.60;42.59;100512.62;128856;1095;22345;-81
2021/06/11 07:18:08;;;;;;;11.08;6.23;;;;;;;26.35;42.79;100517.97;128908;1092;22395;-81
2021/06/11 07:20:38;;;;;;;9.88;6.00;;;;;;;26.07;42.97;100517.38;128921;1092;22657;-81
2021/06/11 07:23:08;;;;;;;11.00;7.50;;;;;;;25.85;43.79;100516.76;128617;1094;23316;-81
2021/06/11 07:25:39;;;;;;;10.18;7.10;;;;;;;25.62;43.95;100516.09;128545;1095;22356;-81
2021/06/11 07:28:09;;;;;;;14.38;7.45;;;;;;;25.49;44.40;100517.41;128565;1095;22353;-81
2021/06/11 07:30:39;;;;;;;13.73;8.23;;;;;;;25.35;44.43;100516.22;128062;1097;22372;-81
2021/06/11 07:33:09;;;;;;;9.13;6.97;;;;;;;25.20;44.62;100516.95;128130;1098;24539;-81
2021/06/11 07:35:42;;;;;;;11.50;7.48;;;;;;;25.02;44.77;100507.33;128092;1098;22369;-81
2021/06/11 07:38:13;;;;;;;8.25;5.55;;;;;;;24.84;44.60;100505.86;128596;1098;22388;-80
2021/06/11 07:40:59;;;;;;;7.70;6.00;;;;;;;24.70;45.22;100509.27;128148;1095;22523;-81
2021/06/11 07:43:29;;;;;;;6.95;6.03;;;;;;;24.59;44.93;100514.59;128376;1095;22360;-82
2021/06/11 07:45:59;;;;;;;8.88;7.13;;;;;;;24.46;44.96;100515.00;128548;1095;23131;-81
2021/06/11 07:48:44;;;;;;;17.98;6.80;;;;;;;24.39;45.77;100514.34;128599;1095;22363;-81
2021/06/11 07:51:16;;;;;;;8.00;6.10;;;;;;;24.31;45.69;100518.33;128851;1092;23047;-81
2021/06/11 07:53:46;;;;;;;8.85;5.93;;;;;;;24.18;45.35;100519.53;128415;1095;22458;-83
2021/06/11 07:56:16;;;;;;;7.80;7.00;;;;;;;24.01;45.40;100518.81;128386;1095;22385;-82
2021/06/11 07:58:46;;;;;;;9.55;5.65;;;;;;;23.92;45.93;100520.31;128632;1095;22360;-81
2021/06/11 08:01:17;;;;;;;10.80;6.38;;;;;;;23.87;46.25;100517.58;128930;1095;22375;-81
2021/06/11 08:03:49;;;;;;;8.23;6.00;;;;;;;23.79;46.24;100515.30;128842;1094;22356;-81
2021/06/11 08:06:19;;;;;;;6.38;5.40;;;;;;;23.73;46.17;100502.84;128423;1095;22355;-84
2021/06/11 08:08:49;;;;;;;11.90;6.90;;;;;;;23.65;46.29;100512.14;128410;1095;22351;-83
2021/06/11 08:11:19;;;;;;;6.95;5.85;;;;;;;23.62;46.60;100512.64;128334;1095;22426;-81
2021/06/11 08:13:49;;;;;;;8.23;6.05;;;;;;;23.76;46.89;100511.25;128308;1098;22378;-82
2021/06/11 08:16:25;;;;;;;9.28;5.50;;;;;;;23.97;46.52;100515.00;128117;1101;23127;-81
2021/06/11 08:18:55;;;;;;;6.60;4.68;;;;;;;24.12;46.40;100517.03;128303;1101;22430;-81
2021/06/11 08:21:28;;;;;;;6.33;5.13;;;;;;;24.44;46.78;100509.03;128225;1101;22393;-82
2021/06/11 08:23:59;;;;;;;8.88;5.13;;;;;;;24.94;45.64;100507.83;128204;1101;22498;-84
2021/06/11 08:26:28;;;;;;;9.35;4.70;;;;;;;25.42;45.31;100505.98;127946;1101;22564;-83
2021/06/11 08:28:59;;;;;;;10.33;5.17;;;;;;;26.00;44.87;100498.68;128255;1101;22397;-82
2021/06/11 08:31:30;;;;;;;7.33;4.83;;;;;;;26.48;43.11;100501.22;128226;1098;22408;-83
2021/06/11 08:34:00;;;;;;;9.85;8.23;;;;;;;26.75;41.91;100511.80;128444;1095;22373;-83
2021/06/11 08:36:30;;;;;;;8.68;4.33;;;;;;;27.07;40.84;100507.98;128752;1092;24505;-82
2021/06/11 08:38:59;;;;;;;5.00;3.00;;;;;;;27.47;39.20;100506.30;128703;1095;22356;-81
2021/06/11 08:41:31;;;;;;;5.68;2.50;;;;;;;27.73;37.41;100509.73;128873;1095;22355;-82
2021/06/11 08:44:01;;;;;;;;;;;;;;;27.65;36.11;100506.47;128982;1092;25004;-82
2021/06/11 08:46:32;;;;;;;6.28;2.13;;;;;;;27.82;36.32;100502.63;128882;1095;23148;-82
2021/06/11 08:49:03;;;;;;;4.90;1.95;;;;;;;28.13;35.36;100506.82;128909;1092;22403;-82
2021/06/11 08:51:35;;;;;;;9.90;3.25;;;;;;;28.16;34.59;100500.02;128909;1095;22663;-82
2021/06/11 08:54:05;;;;;;;7.23;2.73;;;;;;;28.05;34.50;100493.81;128513;1095;22375;-82
2021/06/11 08:56:36;;;;;;;2.88;2.00;;;;;;;27.83;33.81;100487.99;128456;1095;22387;-80
2021/06/11 08:59:06;;;;;;;5.43;2.25;;;;;;;27.65;33.63;100490.19;128247;1095;22373;-81
2021/06/11 09:01:36;;;;;;;5.55;2.30;;;;;;;27.42;33.72;100493.53;128296;1095;22366;-82
2021/06/11 09:04:06;;;;;;;5.87;2.00;;;;;;;27.41;33.25;100490.02;128498;1095;22345;-81
2021/06/11 09:06:36;;;;;;;4.10;1.60;;;;;;;27.53;33.27;100491.63;128519;1095;23360;-81
2021/06/11 09:09:08;;;;;;;4.80;2.00;;;;;;;27.82;33.18;100489.06;128522;1095;22463;-82
2021/06/11 09:11:38;;;;;;;7.63;2.08;;;;;;;28.14;32.93;100485.91;128593;1092;22375;-82
2021/06/11 09:14:16;;;;;;;3.13;2.33;;;;;;;28.18;31.99;100494.30;128348;1095;22345;-81
2021/06/11 09:16:55;;;;;;;5.87;2.47;;;;;;;28.12;32.08;100488.91;128392;1095;22382;-79
2021/06/11 09:19:26;;;;;;;8.50;3.73;;;;;;;28.09;32.27;100497.62;128305;1095;22381;-79
2021/06/11 09:22:01;;;;;;;5.05;2.50;;;;;;;28.08;32.40;100501.41;128309;1095;24185;-80
2021/06/11 09:24:31;;;;;;;6.73;2.55;;;;;;;28.10;32.82;100499.23;128285;1095;22383;-83
2021/06/11 09:27:10;;;;;;;5.95;2.53;;;;;;;28.10;33.21;100499.23;128535;1095;23766;-84
2021/06/11 09:29:47;;;;;;;3.00;2.38;;;;;;;28.09;33.03;100505.77;128674;1095;22420;-84
2021/06/11 09:32:26;;;;;;;7.45;3.70;;;;;;;27.95;33.10;100499.31;128703;1092;24483;-83
2021/06/11 09:35:03;;;;;;;5.08;2.50;;;;;;;27.76;33.05;100515.44;128885;1092;22353;-81
2021/06/11 09:37:38;;;;;;;14.23;3.55;;;;;;;27.51;32.80;100505.45;128744;1092;22350;-78
2021/06/11 09:40:14;;;;;;;4.28;2.30;;;;;;;27.29;33.20;100511.23;128683;1092;22343;-79
2021/06/11 09:42:47;;;;;;;5.58;2.80;;;;;;;27.17;33.13;100500.67;128688;1092;22359;-80
2021/06/11 09:45:27;;;;;;;7.00;2.45;;;;;;;27.11;33.25;100504.44;128676;1092;22996;-80
2021/06/11 09:47:58;;;;;;;10.38;2.10;;;;;;;27.10;32.99;100508.25;128704;1092;22451;-79
2021/06/11 09:50:34;;;;;;;4.33;2.37;;;;;;;27.13;32.48;100496.08;128602;1092;23052;-79
2021/06/11 09:53:09;;;;;;;7.30;2.37;;;;;;;27.11;32.00;100504.44;128853;1092;22438;-81
2021/06/11 09:55:54;;;;;;;3.85;2.08;;;;;;;27.01;31.87;100499.03;128716;1092;22372;-80
2021/06/11 09:58:29;;;;;;;5.88;2.43;;;;;;;26.91;32.25;100499.05;129441;1092;22353;-81
2021/06/11 10:01:11;;;;;;;2.88;2.10;;;;;;;26.79;32.16;100501.22;128914;1092;22440;-79
2021/06/11 10:03:45;;;;;;;2.88;1.68;;;;;;;26.59;32.46;100502.88;128705;1092;22340;-81
2021/06/11 10:06:19;;;;;;;4.70;1.90;;;;;;;26.48;32.69;100507.45;128695;1092;24482;-81
2021/06/11 10:08:51;;;;;;;5.68;2.30;;;;;;;26.33;32.62;100507.42;128806;1092;22377;-80
2021/06/11 10:11:25;;;;;;;8.40;2.35;;;;;;;26.25;32.42;100503.33;128700;1092;24533;-80
2021/06/11 10:13:55;;;;;;;2.43;2.10;;;;;;;26.21;32.89;100504.14;128666;1092;22768;-81
2021/06/11 10:16:25;;;;;;;3.08;2.50;;;;;;;26.17;33.18;100505.77;128428;1092;22343;-80
2021/06/11 10:18:55;;;;;;;5.53;2.55;;;;;;;26.15;33.47;100502.50;128776;1092;22345;-80
2021/06/11 10:21:28;;;;;;;4.45;2.48;;;;;;;26.17;33.02;100501.16;128654;1092;22365;-78
2021/06/11 10:23:59;;;;;;;3.93;2.63;;;;;;;26.24;33.10;100490.88;128651;1092;22337;-81
2021/06/11 10:26:29;;;;;;;6.28;2.90;;;;;;;26.43;32.74;100490.37;128292;1095;22347;-81
2021/06/11 10:29:00;;;;;;;6.28;2.50;;;;;;;26.61;32.38;100497.17;128278;1095;22350;-80
2021/06/11 10:31:37;;;;;;;3.68;3.00;;;;;;;26.64;32.07;100494.73;128314;1095;22359;-80
2021/06/11 10:34:07;;;;;;;4.88;2.60;;;;;;;26.55;32.75;100496.34;128291;1095;22385;-81
2021/06/11 10:36:42;;;;;;;4.80;3.28;;;;;;;26.53;32.32;100492.30;128247;1095;22345;-81
2021/06/11 10:39:12;;;;;;;6.75;2.33;;;;;;;26.42;32.24;100492.23;128440;1095;22353;-80
2021/06/11 10:42:08;;;;;;;4.25;2.98;;;;;;;26.34;32.74;100497.39;128356;1095;24329;-82
2021/06/11 10:44:52;;;;;;;3.25;2.50;;;;;;;26.26;33.29;100493.33;128663;1092;22334;-81
2021/06/11 10:47:21;;;;;;;4.58;3.08;;;;;;;26.14;33.93;100498.17;128736;1092;22378;-81
2021/06/11 10:50:22;;;;;;;5.60;2.70;;;;;;;26.00;34.01;100492.46;129195;1092;22659;-78
2021/06/11 10:53:11;;;;;;;4.30;2.67;;;;;;;25.90;34.28;100500.55;128418;1095;22375;-78
2021/06/11 10:55:49;;;;;;;4.08;2.88;;;;;;;25.69;34.06;100503.16;128294;1095;22347;-78
2021/06/11 10:58:24;;;;;;;6.20;3.58;;;;;;;25.53;34.14;100506.87;128266;1095;22379;-78
2021/06/11 11:00:55;;;;;;;5.15;3.08;;;;;;;25.42;34.94;100507.88;128363;1095;22351;-78
2021/06/11 11:03:29;;;;;;;5.50;2.90;;;;;;;25.32;35.18;100501.36;128318;1095;23891;-77
2021/06/11 11:06:25;;;;;;;3.80;2.83;;;;;;;25.35;35.24;100498.10;128313;1095;22363;-79
2021/06/11 11:08:59;;;;;;;4.73;3.23;;;;;;;25.45;35.52;100493.83;128448;1095;23308;-77
2021/06/11 11:11:40;;;;;;;4.78;2.60;;;;;;;25.59;35.65;100495.81;128025;1098;22394;-78
2021/06/11 11:14:41;;;;;;;5.75;2.83;;;;;;;25.74;34.71;100497.75;128144;1098;22397;-78
2021/06/11 11:17:13;;;;;;;4.45;2.28;;;;;;;25.79;34.96;100496.95;128006;1098;24518;-78
2021/06/11 11:19:53;;;;;;;3.45;2.40;;;;;;;25.85;34.47;100493.21;128071;1098;22369;-78
2021/06/11 11:22:33;;;;;;;9.48;2.60;;;;;;;25.90;34.60;100492.44;128087;1101;22375;-78
2021/06/11 11:25:13;;;;;;;8.43;3.33;;;;;;;25.91;34.61;100486.73;128001;1101;22376;-78
2021/06/11 11:27:52;;;;;;;6.38;3.15;;;;;;;25.96;34.91;100481.36;127610;1101;23341;-79
2021/06/11 11:30:26;;;;;;;5.68;2.55;;;;;;;26.03;34.61;100481.09;128009;1095;22436;-78
2021/06/11 11:32:58;;;;;;;4.93;3.50;;;;;;;26.10;34.78;100478.14;128319;1095;23472;-80
2021/06/11 11:35:32;;;;;;;7.30;3.45;;;;;;;26.08;35.05;100470.27;128365;1095;22443;-80
2021/06/11 11:38:07;;;;;;;5.45;3.18;;;;;;;26.06;34.87;100467.03;128376;1095;22354;-79